Time;durP1;ratioP1;P1;durP2;ratioP2;P2;SDS_P1;SDS_P2;PMS_P1;PMS_P2;Temp;Humidity;BMP_temperature;BMP_pressure;BME280_temperature;BME280_humidity;BME280_pressure;Samples;Min_cycle;Max_cycle;Signal;HPM_P1;HPM_P2
2023/11/11 00:00:44;;;;;;;1.77;0.50;;;12.10;72.40;;;;;;2331507;58;21747;-67
2023/11/11 00:03:10;;;;;;;3.03;0.50;;;12.20;72.50;;;;;;2129252;58;21060;-67
2023/11/11 00:05:36;;;;;;;1.33;0.47;;;12.20;72.50;;;;;;2334195;58;21455;-67
2023/11/11 00:08:03;;;;;;;2.45;0.43;;;12.20;72.50;;;;;;2338201;58;21041;-68
2023/11/11 00:10:31;;;;;;;1.48;0.40;;;12.20;72.50;;;;;;2331200;58;21671;-67
2023/11/11 00:12:58;;;;;;;0.90;0.40;;;12.20;72.60;;;;;;2331654;58;20986;-68
2023/11/11 00:15:25;;;;;;;1.25;0.50;;;12.20;72.60;;;;;;2134568;59;21130;-67
2023/11/11 00:17:51;;;;;;;0.93;0.40;;;12.20;72.60;;;;;;2130027;59;21018;-65
2023/11/11 00:20:17;;;;;;;1.58;0.50;;;12.20;72.60;;;;;;2137299;59;21479;-66
2023/11/11 00:22:44;;;;;;;1.45;0.50;;;12.20;72.60;;;;;;2137901;59;21001;-66
2023/11/11 00:25:11;;;;;;;1.67;0.40;;;12.20;72.60;;;;;;2129484;59;21026;-65
2023/11/11 00:27:41;;;;;;;0.95;0.30;;;12.20;72.60;;;;;;2133221;59;21133;-66
2023/11/11 00:30:11;;;;;;;1.02;0.40;;;12.20;72.60;;;;;;2334230;58;21022;-66
2023/11/11 00:32:38;;;;;;;1.02;0.32;;;12.20;72.50;;;;;;2129519;59;21006;-67
2023/11/11 00:35:08;;;;;;;2.83;0.73;;;12.30;72.60;;;;;;2133846;59;20930;-66
2023/11/11 00:37:35;;;;;;;1.33;0.40;;;12.20;72.50;;;;;;2331183;58;20991;-65
2023/11/11 00:40:01;;;;;;;1.30;0.30;;;12.20;72.40;;;;;;2331606;58;20962;-65
2023/11/11 00:42:30;;;;;;;1.50;0.40;;;12.20;72.40;;;;;;2132394;59;21535;-66
2023/11/11 00:44:56;;;;;;;0.88;0.40;;;12.20;72.30;;;;;;2314957;59;21884;-67
2023/11/11 00:47:24;;;;;;;1.00;0.35;;;12.20;72.30;;;;;;2129846;59;20942;-68
2023/11/11 00:49:52;;;;;;;1.95;0.45;;;12.20;72.20;;;;;;2134625;59;20969;-68
2023/11/11 00:52:19;;;;;;;1.50;0.40;;;12.20;72.20;;;;;;2133787;59;21864;-69
2023/11/11 00:54:47;;;;;;;0.73;0.30;;;12.20;72.10;;;;;;2132485;59;21076;-65
2023/11/11 00:57:13;;;;;;;0.85;0.30;;;12.20;71.90;;;;;;2129478;59;21028;-66
2023/11/11 00:59:40;;;;;;;0.55;0.30;;;12.20;72.00;;;;;;2331598;58;20974;-67
2023/11/11 01:02:06;;;;;;;0.10;0.10;;;12.10;71.90;;;;;;2137789;59;21018;-67
2023/11/11 01:04:32;;;;;;;0.73;0.30;;;12.20;71.90;;;;;;2131980;59;20970;-67
2023/11/11 01:06:59;;;;;;;0.43;0.20;;;12.10;71.80;;;;;;2135666;58;21037;-67
2023/11/11 01:09:28;;;;;;;0.80;0.30;;;12.10;71.70;;;;;;2333755;58;20990;-68
2023/11/11 01:11:54;;;;;;;0.30;0.20;;;12.10;71.70;;;;;;2332495;58;21440;-68
2023/11/11 01:14:23;;;;;;;0.50;0.30;;;12.10;71.70;;;;;;2129862;59;21096;-67
2023/11/11 01:16:50;;;;;;;1.33;0.40;;;12.10;71.70;;;;;;2129793;58;21567;-68
2023/11/11 01:19:16;;;;;;;1.00;0.30;;;12.10;71.70;;;;;;2328864;58;21645;-65
2023/11/11 01:21:42;;;;;;;1.70;0.22;;;12.00;71.50;;;;;;2128815;58;21695;-67
2023/11/11 01:24:09;;;;;;;1.05;0.40;;;12.00;71.50;;;;;;2331230;58;21019;-67
2023/11/11 01:26:35;;;;;;;1.25;0.68;;;12.00;71.50;;;;;;2129096;59;21596;-67
2023/11/11 01:29:01;;;;;;;1.02;0.40;;;12.00;71.50;;;;;;2331100;58;20957;-67
2023/11/11 01:31:31;;;;;;;1.45;0.40;;;12.00;71.50;;;;;;2130130;58;21005;-68
2023/11/11 01:33:57;;;;;;;0.90;0.30;;;11.90;71.40;;;;;;2335837;58;20982;-67
2023/11/11 01:36:23;;;;;;;2.35;0.50;;;12.00;71.50;;;;;;2334298;58;21117;-68
2023/11/11 01:38:50;;;;;;;2.20;0.40;;;11.90;71.40;;;;;;2331062;58;21070;-67
2023/11/11 01:41:17;;;;;;;0.90;0.40;;;11.90;72.10;;;;;;2331360;58;21269;-67
2023/11/11 01:43:43;;;;;;;2.62;0.50;;;11.90;71.40;;;;;;2331048;58;20966;-68
2023/11/11 01:46:12;;;;;;;1.77;0.80;;;11.90;71.50;;;;;;2185460;58;2247785;-68
2023/11/11 01:48:40;;;;;;;1.80;0.52;;;11.90;71.40;;;;;;2331630;58;21744;-68
2023/11/11 01:51:06;;;;;;;1.12;0.40;;;11.90;71.50;;;;;;2137622;59;22055;-68
2023/11/11 01:53:33;;;;;;;1.48;0.50;;;11.90;71.50;;;;;;2337252;59;21038;-67
2023/11/11 01:56:01;;;;;;;1.73;0.60;;;11.90;71.50;;;;;;2335364;58;21589;-67
2023/11/11 01:58:27;;;;;;;2.65;0.68;;;11.90;71.40;;;;;;2129552;59;21053;-67
2023/11/11 02:00:53;;;;;;;1.70;0.60;;;11.90;71.50;;;;;;2129980;59;20994;-68
2023/11/11 02:03:20;;;;;;;1.67;0.52;;;11.90;71.50;;;;;;2135820;59;21454;-66
2023/11/11 02:05:47;;;;;;;1.40;0.47;;;11.90;71.40;;;;;;2331800;58;21034;-67
2023/11/11 02:08:15;;;;;;;1.90;0.50;;;11.90;71.50;;;;;;2335762;58;21058;-69
2023/11/11 02:10:45;;;;;;;2.17;0.90;;;11.90;71.50;;;;;;2332951;58;21546;-68
2023/11/11 02:13:11;;;;;;;1.30;0.50;;;11.90;71.60;;;;;;2335598;58;20978;-67
2023/11/11 02:15:38;;;;;;;1.67;0.60;;;11.80;71.40;;;;;;2129470;58;20990;-68
2023/11/11 02:18:04;;;;;;;1.30;0.70;;;11.80;71.30;;;;;;2331532;58;21029;-67
2023/11/11 02:20:35;;;;;;;1.60;0.60;;;11.80;71.20;;;;;;2131080;58;21054;-67
2023/11/11 02:23:02;;;;;;;2.58;0.65;;;11.80;71.20;;;;;;2130630;58;21109;-67
2023/11/11 02:25:29;;;;;;;1.98;0.70;;;11.80;71.30;;;;;;2331403;58;20970;-67
2023/11/11 02:27:57;;;;;;;2.22;0.70;;;11.80;71.30;;;;;;2130231;59;21113;-67
2023/11/11 02:30:23;;;;;;;3.15;0.68;;;11.80;71.30;;;;;;2336509;59;21473;-68
2023/11/11 02:32:51;;;;;;;1.83;0.50;;;11.80;71.40;;;;;;2129916;59;21033;-67
2023/11/11 02:35:20;;;;;;;1.98;0.70;;;11.80;71.40;;;;;;2331321;58;21877;-68
2023/11/11 02:37:46;;;;;;;2.70;0.62;;;11.80;71.40;;;;;;2135962;59;21045;-67
2023/11/11 02:40:13;;;;;;;2.28;0.90;;;11.80;71.40;;;;;;2332371;58;20982;-68
2023/11/11 02:42:42;;;;;;;3.15;0.88;;;11.80;71.30;;;;;;2331116;58;21375;-67
2023/11/11 02:45:11;;;;;;;1.98;0.90;;;11.80;71.10;;;;;;2132941;59;21049;-67
2023/11/11 02:47:37;;;;;;;1.92;0.60;;;11.80;71.20;;;;;;2337129;58;21025;-67
2023/11/11 02:50:09;;;;;;;2.22;0.70;;;11.80;71.20;;;;;;2133616;59;20982;-66
2023/11/11 02:52:35;;;;;;;1.80;0.70;;;11.80;71.00;;;;;;2332225;58;21050;-68
2023/11/11 02:55:01;;;;;;;1.85;0.80;;;11.80;71.20;;;;;;2332167;58;20941;-68
2023/11/11 02:57:28;;;;;;;2.62;0.90;;;11.80;71.20;;;;;;2331122;58;22005;-67
2023/11/11 02:59:55;;;;;;;2.10;0.80;;;11.80;71.30;;;;;;2129844;59;21058;-67
2023/11/11 03:02:23;;;;;;;1.92;0.80;;;11.80;71.30;;;;;;2331776;58;21063;-67
2023/11/11 03:04:50;;;;;;;3.87;0.90;;;11.80;71.10;;;;;;2130305;59;20986;-68
2023/11/11 03:07:17;;;;;;;2.33;0.80;;;11.70;70.90;;;;;;2129307;59;21038;-68
2023/11/11 03:09:43;;;;;;;2.25;0.80;;;11.80;71.10;;;;;;2331527;58;21717;-68
2023/11/11 03:12:12;;;;;;;3.65;1.00;;;11.70;71.00;;;;;;2130231;59;21043;-66
2023/11/11 03:14:40;;;;;;;4.20;1.20;;;11.70;71.00;;;;;;2331499;58;20962;-67
2023/11/11 03:17:08;;;;;;;2.42;0.90;;;11.70;71.00;;;;;;2130317;59;21017;-68
2023/11/11 03:19:34;;;;;;;2.58;0.90;;;11.70;71.00;;;;;;2130073;59;21089;-66
2023/11/11 03:22:02;;;;;;;2.67;1.02;;;11.70;71.10;;;;;;2129715;59;20958;-67
2023/11/11 03:24:29;;;;;;;3.28;1.00;;;11.70;71.10;;;;;;2331042;58;21614;-68
2023/11/11 03:26:55;;;;;;;1.87;0.77;;;11.70;71.10;;;;;;2129801;59;21023;-68
2023/11/11 03:29:26;;;;;;;1.87;0.75;;;11.70;71.10;;;;;;2129608;59;21402;-67
2023/11/11 03:31:54;;;;;;;2.12;0.88;;;11.70;71.00;;;;;;2129881;59;21033;-67
2023/11/11 03:34:20;;;;;;;1.87;0.82;;;11.70;71.20;;;;;;2135839;59;21058;-67
2023/11/11 03:36:46;;;;;;;2.47;0.80;;;11.70;71.00;;;;;;2332883;58;21026;-67
2023/11/11 03:39:14;;;;;;;3.20;1.15;;;11.70;70.90;;;;;;2334735;58;20977;-68
2023/11/11 03:41:40;;;;;;;3.95;1.50;;;11.70;70.80;;;;;;2129769;58;20981;-67
2023/11/11 03:44:08;;;;;;;3.40;1.20;;;11.70;70.70;;;;;;2129980;59;20993;-68
2023/11/11 03:46:37;;;;;;;4.07;1.50;;;11.70;70.70;;;;;;2331490;58;21018;-68
2023/11/11 03:49:06;;;;;;;5.85;1.70;;;11.70;70.80;;;;;;2337380;58;21013;-66
2023/11/11 03:51:33;;;;;;;3.42;1.12;;;11.70;70.70;;;;;;2337381;58;21072;-67
2023/11/11 03:53:59;;;;;;;2.75;1.30;;;11.70;70.70;;;;;;2331487;58;21936;-66
2023/11/11 03:56:25;;;;;;;4.53;2.00;;;11.60;70.50;;;;;;2129595;58;21125;-66
2023/11/11 03:58:52;;;;;;;4.45;1.77;;;11.60;70.40;;;;;;2330974;58;20991;-67
2023/11/11 04:01:18;;;;;;;3.35;1.67;;;11.60;70.40;;;;;;2129314;59;21017;-68
2023/11/11 04:03:45;;;;;;;2.70;1.02;;;11.60;70.40;;;;;;2129793;59;20993;-67
2023/11/11 04:06:11;;;;;;;2.78;1.15;;;11.60;70.40;;;;;;2130432;59;21463;-68
2023/11/11 04:08:39;;;;;;;2.67;0.85;;;11.60;70.50;;;;;;2331658;58;21046;-68
2023/11/11 04:11:08;;;;;;;2.42;0.98;;;11.60;70.40;;;;;;2331811;58;20982;-67
2023/11/11 04:13:39;;;;;;;1.80;0.77;;;11.60;70.50;;;;;;2336198;58;21114;-67
2023/11/11 04:16:08;;;;;;;3.22;0.90;;;11.60;70.30;;;;;;2130116;59;20993;-68
2023/11/11 04:18:34;;;;;;;2.55;0.90;;;11.60;70.30;;;;;;2134313;59;21029;-67
2023/11/11 04:21:01;;;;;;;1.50;0.70;;;11.60;70.30;;;;;;2138193;59;21181;-67
2023/11/11 04:23:30;;;;;;;2.33;0.88;;;11.60;70.30;;;;;;2131810;59;21065;-68
2023/11/11 04:26:00;;;;;;;2.28;0.80;;;11.60;70.30;;;;;;2331010;58;21833;-67
2023/11/11 04:28:27;;;;;;;2.35;0.73;;;11.50;70.00;;;;;;2330747;58;21078;-67
2023/11/11 04:30:53;;;;;;;2.03;0.73;;;11.50;70.10;;;;;;2130504;59;20994;-67
2023/11/11 04:33:20;;;;;;;2.15;0.70;;;11.50;70.10;;;;;;2130062;59;21228;-67
2023/11/11 04:35:46;;;;;;;2.10;0.80;;;11.50;70.10;;;;;;2133819;59;21089;-67
2023/11/11 04:38:14;;;;;;;1.70;0.80;;;11.50;70.10;;;;;;2335748;58;20962;-67
2023/11/11 04:40:43;;;;;;;3.33;0.82;;;11.50;70.10;;;;;;2130271;59;20978;-67
2023/11/11 04:43:10;;;;;;;1.70;0.68;;;11.50;70.10;;;;;;2332000;58;21067;-66
2023/11/11 04:45:37;;;;;;;1.58;0.70;;;11.50;70.10;;;;;;2332050;58;21715;-67
2023/11/11 04:48:03;;;;;;;3.35;0.80;;;11.50;70.20;;;;;;2331704;58;20966;-67
2023/11/11 04:50:30;;;;;;;3.75;1.40;;;11.50;70.20;;;;;;2331809;58;20966;-66
2023/11/11 04:52:57;;;;;;;1.60;0.73;;;11.50;70.10;;;;;;2332972;58;21169;-68
2023/11/11 04:55:23;;;;;;;1.05;0.50;;;11.50;70.10;;;;;;2334643;58;21034;-67
2023/11/11 04:57:50;;;;;;;2.53;0.80;;;11.50;70.10;;;;;;2130189;58;21058;-67
2023/11/11 05:00:17;;;;;;;3.87;0.70;;;11.40;69.90;;;;;;2129822;58;20978;-67
2023/11/11 05:02:44;;;;;;;2.87;0.80;;;11.40;69.80;;;;;;2130855;59;20981;-68
2023/11/11 05:05:10;;;;;;;1.98;0.77;;;11.40;69.90;;;;;;2129644;59;21442;-68
2023/11/11 05:07:40;;;;;;;1.27;0.60;;;11.40;69.90;;;;;;2135202;59;21109;-67
2023/11/11 05:10:09;;;;;;;1.90;0.70;;;11.40;69.80;;;;;;2332856;58;21085;-67
2023/11/11 05:12:37;;;;;;;2.75;0.95;;;11.40;69.80;;;;;;2331620;58;21054;-68
2023/11/11 05:15:25;;;;;;;2.10;0.70;;;11.40;69.80;;;;;;2129491;59;21026;-67
2023/11/11 05:17:51;;;;;;;3.25;0.70;;;11.40;69.80;;;;;;2331376;58;20998;-67
2023/11/11 05:20:17;;;;;;;2.08;0.70;;;11.40;69.80;;;;;;2331036;58;21025;-67
2023/11/11 05:22:45;;;;;;;1.90;0.80;;;11.40;69.80;;;;;;2333549;58;21062;-67
2023/11/11 05:25:11;;;;;;;2.47;0.80;;;11.30;69.80;;;;;;2132575;58;20974;-67
2023/11/11 05:27:37;;;;;;;2.72;0.88;;;11.40;70.00;;;;;;2331425;58;20986;-68
2023/11/11 05:30:05;;;;;;;2.45;0.80;;;11.40;70.00;;;;;;2138712;59;21014;-66
2023/11/11 05:32:31;;;;;;;2.12;0.73;;;11.30;69.90;;;;;;2132021;59;21087;-68
2023/11/11 05:34:58;;;;;;;2.90;0.80;;;11.30;70.00;;;;;;2129766;59;20978;-67
2023/11/11 05:37:25;;;;;;;1.87;0.68;;;11.30;69.90;;;;;;2331686;58;20981;-67
2023/11/11 05:39:51;;;;;;;2.60;0.77;;;11.30;70.00;;;;;;2134205;59;21017;-67
2023/11/11 05:42:18;;;;;;;3.62;1.15;;;11.30;70.00;;;;;;2133100;59;21002;-67
2023/11/11 05:44:44;;;;;;;2.87;1.15;;;11.30;70.00;;;;;;2130014;59;21051;-68
2023/11/11 05:47:11;;;;;;;2.28;0.95;;;11.30;70.00;;;;;;2331191;58;21018;-67
2023/11/11 05:49:40;;;;;;;2.37;0.88;;;11.30;70.10;;;;;;2129886;59;21092;-67
2023/11/11 05:52:09;;;;;;;2.70;0.90;;;11.30;70.10;;;;;;2129759;58;21006;-66
2023/11/11 05:54:38;;;;;;;3.10;1.00;;;11.30;69.90;;;;;;2129761;58;21034;-66
2023/11/11 05:57:04;;;;;;;2.50;1.10;;;11.30;70.00;;;;;;2129482;59;20998;-67
2023/11/11 05:59:31;;;;;;;2.20;0.93;;;11.30;70.00;;;;;;2130131;59;21015;-67
2023/11/11 06:01:57;;;;;;;2.70;1.23;;;11.30;70.00;;;;;;2130194;59;21735;-67
2023/11/11 06:04:23;;;;;;;3.30;1.40;;;11.30;70.00;;;;;;2331156;58;21998;-68
2023/11/11 06:06:51;;;;;;;3.28;1.02;;;11.30;70.00;;;;;;2331948;58;21030;-66
2023/11/11 06:09:24;;;;;;;2.60;1.05;;;11.30;70.00;;;;;;2331285;58;21058;-66
2023/11/11 06:11:50;;;;;;;2.80;1.00;;;11.30;70.00;;;;;;2331866;58;21006;-67
2023/11/11 06:14:17;;;;;;;2.92;1.20;;;11.30;70.00;;;;;;2331525;58;21007;-67
2023/11/11 06:16:44;;;;;;;2.53;1.00;;;11.30;70.10;;;;;;2331622;58;20979;-67
2023/11/11 06:19:11;;;;;;;3.40;1.00;;;11.30;70.10;;;;;;2330891;58;20954;-68
2023/11/11 06:21:37;;;;;;;2.70;0.80;;;11.30;70.20;;;;;;2335571;58;20954;-68
2023/11/11 06:24:04;;;;;;;1.77;0.80;;;11.30;70.30;;;;;;2129694;59;20970;-66
2023/11/11 06:26:30;;;;;;;1.83;0.70;;;11.40;70.40;;;;;;2331365;58;21909;-66
2023/11/11 06:28:57;;;;;;;2.65;0.90;;;11.30;70.40;;;;;;2130279;59;21023;-66
2023/11/11 06:31:24;;;;;;;2.33;1.02;;;11.30;70.40;;;;;;2336248;59;21297;-67
2023/11/11 06:33:50;;;;;;;2.85;0.80;;;11.30;70.40;;;;;;2316168;59;20978;-66
2023/11/11 06:36:18;;;;;;;3.80;0.90;;;11.40;70.50;;;;;;2330893;58;21009;-67
2023/11/11 06:38:48;;;;;;;2.33;0.95;;;11.30;70.30;;;;;;2129498;59;20974;-67
2023/11/11 06:41:14;;;;;;;2.80;0.80;;;11.30;71.00;;;;;;2129315;58;20974;-67
2023/11/11 06:43:40;;;;;;;1.77;0.88;;;11.30;70.30;;;;;;2129978;58;21086;-67
2023/11/11 06:46:09;;;;;;;2.53;0.80;;;11.30;70.30;;;;;;2331086;58;21073;-66
2023/11/11 06:48:35;;;;;;;2.30;0.90;;;11.30;70.40;;;;;;2331434;58;20961;-67
2023/11/11 06:51:02;;;;;;;2.95;1.05;;;11.30;70.40;;;;;;2129622;59;20986;-67
2023/11/11 06:53:29;;;;;;;2.30;0.98;;;11.30;70.60;;;;;;2129946;59;21010;-68
2023/11/11 06:55:56;;;;;;;3.28;0.80;;;11.40;70.60;;;;;;2332098;58;20993;-66
2023/11/11 06:58:22;;;;;;;1.98;0.85;;;11.40;70.80;;;;;;2130566;59;21022;-67
2023/11/11 07:00:49;;;;;;;3.30;0.77;;;11.40;70.80;;;;;;2136236;59;21753;-67
2023/11/11 07:03:15;;;;;;;2.87;1.00;;;11.40;70.70;;;;;;2133620;58;21475;-67
2023/11/11 07:05:43;;;;;;;3.25;1.12;;;11.40;70.70;;;;;;2130041;58;20978;-68
2023/11/11 07:08:10;;;;;;;2.22;0.90;;;11.40;70.60;;;;;;2129749;58;20982;-66
2023/11/11 07:10:38;;;;;;;2.60;1.00;;;11.40;70.60;;;;;;2331153;58;21027;-67
2023/11/11 07:13:04;;;;;;;2.42;0.90;;;11.40;70.60;;;;;;2331186;58;21006;-66
2023/11/11 07:15:41;;;;;;;2.78;1.12;;;11.40;70.60;;;;;;2129848;63;21072;-68
2023/11/11 07:18:08;;;;;;;2.25;0.88;;;11.40;70.30;;;;;;2331019;58;21048;-67
2023/11/11 07:20:34;;;;;;;2.17;0.80;;;11.40;70.70;;;;;;2331541;58;21010;-67
2023/11/11 07:23:01;;;;;;;2.67;0.80;;;11.40;70.70;;;;;;2331190;58;20986;-67
2023/11/11 07:25:27;;;;;;;2.00;0.80;;;11.40;70.80;;;;;;2331273;58;21026;-67
2023/11/11 07:27:53;;;;;;;1.95;0.80;;;11.40;70.80;;;;;;2136433;59;21027;-67
2023/11/11 07:30:20;;;;;;;2.22;0.80;;;11.40;70.90;;;;;;2138427;59;21097;-67
2023/11/11 07:32:47;;;;;;;2.03;0.68;;;11.40;71.00;;;;;;2129526;59;21002;-67
2023/11/11 07:35:16;;;;;;;2.47;0.70;;;11.40;71.00;;;;;;2332400;58;21005;-66
2023/11/11 07:37:46;;;;;;;2.00;0.80;;;11.40;70.90;;;;;;2336483;59;21861;-67
2023/11/11 07:40:14;;;;;;;1.83;0.70;;;11.50;71.10;;;;;;2334260;58;20989;-68
2023/11/11 07:42:43;;;;;;;1.65;0.60;;;11.50;71.10;;;;;;2129693;59;21010;-67
2023/11/11 07:45:11;;;;;;;1.95;0.80;;;11.50;71.10;;;;;;2129473;59;21938;-67
2023/11/11 07:47:38;;;;;;;1.75;0.70;;;11.50;71.00;;;;;;2129656;59;21018;-68
2023/11/11 07:50:06;;;;;;;2.78;1.00;;;11.50;71.00;;;;;;2330841;58;21018;-68
2023/11/11 07:52:32;;;;;;;3.25;0.82;;;11.50;71.00;;;;;;2331332;58;20989;-67
2023/11/11 07:54:59;;;;;;;2.40;0.90;;;11.50;71.00;;;;;;2331369;58;21283;-68
2023/11/11 07:57:25;;;;;;;2.55;1.00;;;11.50;71.00;;;;;;2331143;58;21013;-68
2023/11/11 07:59:57;;;;;;;1.75;0.77;;;11.50;70.90;;;;;;2332396;58;21638;-68
2023/11/11 08:02:25;;;;;;;1.90;0.95;;;11.50;70.80;;;;;;2132378;59;21754;-67
2023/11/11 08:04:52;;;;;;;2.85;1.10;;;11.50;70.70;;;;;;2133219;58;21196;-67
2023/11/11 08:07:20;;;;;;;2.87;1.10;;;11.50;70.60;;;;;;2130287;58;20993;-67
2023/11/11 08:09:46;;;;;;;2.50;0.90;;;11.50;70.50;;;;;;2129473;59;21282;-67
2023/11/11 08:12:13;;;;;;;2.15;0.88;;;11.60;70.70;;;;;;2330364;58;21058;-69
2023/11/11 08:14:39;;;;;;;2.15;0.82;;;11.50;70.60;;;;;;2140355;59;21068;-67
2023/11/11 08:17:06;;;;;;;2.60;1.20;;;11.60;70.70;;;;;;2307666;58;20966;-66
2023/11/11 08:19:33;;;;;;;1.80;0.80;;;11.60;70.70;;;;;;2332520;58;20986;-67
2023/11/11 08:21:59;;;;;;;1.95;0.80;;;11.60;70.80;;;;;;2128224;59;21347;-67
2023/11/11 08:24:26;;;;;;;3.42;1.08;;;11.60;70.80;;;;;;2330128;58;21487;-67
2023/11/11 08:26:52;;;;;;;1.83;0.90;;;11.60;70.90;;;;;;2331328;58;20993;-67
2023/11/11 08:29:21;;;;;;;2.17;0.80;;;11.60;70.80;;;;;;2128980;59;21073;-68
2023/11/11 08:31:48;;;;;;;2.62;0.73;;;11.60;70.80;;;;;;2129601;59;20958;-66
2023/11/11 08:34:14;;;;;;;3.00;1.00;;;11.60;70.80;;;;;;2129299;59;21023;-67
2023/11/11 08:36:41;;;;;;;2.33;0.85;;;11.60;70.80;;;;;;2331205;58;20998;-67
2023/11/11 08:39:12;;;;;;;2.80;0.93;;;11.60;70.80;;;;;;2331088;58;21474;-68
2023/11/11 08:41:38;;;;;;;2.12;0.70;;;11.60;70.70;;;;;;2331079;58;21038;-67
2023/11/11 08:44:05;;;;;;;1.92;0.80;;;11.60;70.80;;;;;;2129443;59;20974;-68
2023/11/11 08:46:34;;;;;;;1.98;0.73;;;11.70;71.00;;;;;;2129464;59;21558;-67
2023/11/11 08:49:00;;;;;;;2.42;1.00;;;11.70;71.10;;;;;;2331288;58;21112;-67
2023/11/11 08:51:26;;;;;;;2.28;0.95;;;11.70;71.20;;;;;;2330636;58;21030;-67
2023/11/11 08:53:53;;;;;;;2.65;0.90;;;11.70;71.10;;;;;;2331453;58;21024;-67
2023/11/11 08:56:19;;;;;;;3.28;0.90;;;11.70;71.10;;;;;;2330354;58;20965;-68
2023/11/11 08:58:46;;;;;;;3.53;1.00;;;11.80;71.20;;;;;;2129118;59;21884;-67
2023/11/11 09:01:15;;;;;;;2.22;0.90;;;11.80;71.00;;;;;;2134163;59;21136;-68
2023/11/11 09:03:42;;;;;;;2.42;0.95;;;11.80;71.00;;;;;;2129537;59;21014;-67
2023/11/11 09:06:10;;;;;;;2.10;0.80;;;11.80;71.00;;;;;;2129609;59;20986;-67
2023/11/11 09:08:36;;;;;;;2.30;0.90;;;11.80;71.10;;;;;;2130048;59;21026;-66
2023/11/11 09:11:03;;;;;;;1.83;0.70;;;11.90;71.30;;;;;;2129789;59;21015;-67
2023/11/11 09:13:29;;;;;;;3.35;1.00;;;11.90;71.30;;;;;;2330635;58;21535;-68
2023/11/11 09:15:57;;;;;;;1.90;0.90;;;12.00;72.20;;;;;;2331174;58;20970;-68
2023/11/11 09:18:24;;;;;;;3.37;1.17;;;11.90;71.40;;;;;;2128540;59;20986;-66
2023/11/11 09:20:51;;;;;;;2.85;1.10;;;12.00;71.50;;;;;;2331453;58;20946;-67
2023/11/11 09:23:17;;;;;;;2.72;0.90;;;12.00;71.50;;;;;;2332550;58;21046;-67
2023/11/11 09:25:43;;;;;;;2.47;0.93;;;12.00;71.40;;;;;;2132872;59;20962;-68
2023/11/11 09:28:11;;;;;;;3.53;1.37;;;12.10;71.40;;;;;;2128767;59;21088;-68
2023/11/11 09:30:39;;;;;;;3.97;1.20;;;12.10;71.40;;;;;;2129993;58;20962;-66
2023/11/11 09:33:05;;;;;;;3.70;1.25;;;12.20;71.50;;;;;;2331000;58;21065;-67
2023/11/11 09:35:37;;;;;;;2.87;1.00;;;12.20;71.50;;;;;;2330845;58;21494;-69
2023/11/11 09:38:03;;;;;;;2.30;1.05;;;12.20;71.40;;;;;;2129019;59;21022;-68
2023/11/11 09:40:33;;;;;;;2.12;1.00;;;12.20;71.50;;;;;;2129356;59;21029;-67
2023/11/11 09:42:59;;;;;;;3.17;0.98;;;12.30;71.70;;;;;;2331848;58;21318;-67
2023/11/11 09:45:26;;;;;;;2.87;1.00;;;12.30;71.70;;;;;;2129035;59;20973;-67
2023/11/11 09:47:52;;;;;;;2.55;1.00;;;12.40;71.70;;;;;;2331154;58;20989;-67
2023/11/11 09:50:19;;;;;;;2.70;1.00;;;12.40;71.60;;;;;;2331013;58;21061;-68
2023/11/11 09:52:47;;;;;;;1.62;0.75;;;12.40;71.40;;;;;;2129968;59;21000;-67
2023/11/11 09:55:14;;;;;;;2.40;0.98;;;12.50;71.60;;;;;;2331226;58;20974;-67
2023/11/11 09:57:40;;;;;;;1.73;0.77;;;12.50;71.70;;;;;;2129792;59;21038;-67
2023/11/11 10:00:11;;;;;;;2.70;1.27;;;12.60;71.80;;;;;;2330844;58;21015;-67
2023/11/11 10:02:38;;;;;;;2.53;1.02;;;12.60;71.70;;;;;;2122867;60;21460;-67
2023/11/11 10:05:09;;;;;;;2.87;1.20;;;12.70;71.60;;;;;;2129020;59;20990;-67
2023/11/11 10:07:37;;;;;;;2.93;1.00;;;12.70;71.20;;;;;;2331042;58;21010;-67
2023/11/11 10:10:05;;;;;;;3.05;1.00;;;12.70;71.00;;;;;;2138386;60;21516;-68
2023/11/11 10:12:31;;;;;;;3.35;1.10;;;12.80;70.90;;;;;;2332842;58;20957;-67
2023/11/11 10:15:04;;;;;;;2.70;1.25;;;12.80;70.80;;;;;;2130091;59;20994;-67
2023/11/11 10:17:35;;;;;;;4.22;1.17;;;12.80;70.50;;;;;;2330911;58;21054;-67
2023/11/11 10:20:05;;;;;;;2.83;1.02;;;12.80;70.40;;;;;;2129583;59;21476;-68
2023/11/11 10:22:31;;;;;;;2.35;0.80;;;12.80;70.20;;;;;;2136327;59;21622;-67
2023/11/11 10:24:58;;;;;;;4.40;1.25;;;12.80;70.20;;;;;;2132876;58;21106;-63
2023/11/11 10:27:27;;;;;;;3.80;1.15;;;12.80;70.10;;;;;;2330504;58;20950;-64
2023/11/11 10:29:53;;;;;;;3.47;1.00;;;12.80;69.90;;;;;;2331145;58;20963;-67
2023/11/11 10:32:21;;;;;;;3.05;1.00;;;12.80;69.80;;;;;;2129326;59;20970;-66
2023/11/11 10:34:47;;;;;;;1.92;0.90;;;12.80;69.80;;;;;;2129730;59;21350;-67
2023/11/11 10:37:13;;;;;;;2.62;0.90;;;12.80;69.80;;;;;;2330816;58;21588;-67
2023/11/11 10:39:42;;;;;;;2.92;1.10;;;12.80;69.70;;;;;;2129002;59;21018;-68
2023/11/11 10:42:09;;;;;;;2.87;1.20;;;12.80;69.60;;;;;;2134761;59;21054;-67
2023/11/11 10:44:35;;;;;;;2.60;1.20;;;12.80;69.50;;;;;;2137946;59;20987;-67
2023/11/11 10:47:02;;;;;;;3.83;1.52;;;12.80;69.60;;;;;;2331253;58;20966;-65
2023/11/11 10:49:29;;;;;;;4.00;1.55;;;12.80;69.60;;;;;;2135891;58;21314;-67
2023/11/11 10:52:01;;;;;;;4.25;1.30;;;12.80;69.60;;;;;;2331946;58;21870;-68
2023/11/11 10:54:27;;;;;;;3.05;1.48;;;12.80;69.70;;;;;;2330910;58;20981;-67
2023/11/11 10:56:55;;;;;;;3.53;1.30;;;12.80;69.50;;;;;;2129858;58;21008;-67
2023/11/11 10:59:22;;;;;;;2.65;1.02;;;12.80;69.60;;;;;;2129650;58;21022;-68
2023/11/11 11:01:48;;;;;;;2.40;1.17;;;12.80;69.60;;;;;;2133773;59;20978;-67
2023/11/11 11:04:14;;;;;;;3.55;1.20;;;12.80;69.40;;;;;;2136683;60;21051;-66
2023/11/11 11:06:45;;;;;;;1.67;0.73;;;12.70;69.20;;;;;;2130091;59;20962;-67
2023/11/11 11:09:38;;;;;;;4.18;1.00;;;12.70;69.20;;;;;;2130563;59;21006;-69
2023/11/11 11:12:46;;;;;;;3.10;1.12;;;12.70;68.60;;;;;;2332028;58;21105;-67
2023/11/11 11:15:13;;;;;;;2.80;1.00;;;12.70;68.80;;;;;;2134050;59;20990;-66
2023/11/11 11:17:44;;;;;;;3.00;0.98;;;12.70;69.30;;;;;;2133525;59;20953;-66
2023/11/11 11:20:20;;;;;;;3.53;1.37;;;12.70;69.00;;;;;;2331045;58;21971;-67
2023/11/11 11:22:49;;;;;;;2.45;0.98;;;12.70;69.20;;;;;;2331345;58;21515;-67
2023/11/11 11:25:41;;;;;;;3.70;1.00;;;12.60;69.10;;;;;;2331310;58;20994;-67
2023/11/11 11:28:54;;;;;;;3.12;1.10;;;12.70;68.20;;;;;;2331996;58;21006;-69
2023/11/11 11:31:20;;;;;;;2.22;0.80;;;12.60;68.20;;;;;;2331067;58;21010;-66
2023/11/11 11:33:46;;;;;;;2.97;0.80;;;12.60;69.20;;;;;;2131419;58;20993;-66
2023/11/11 11:36:15;;;;;;;4.20;0.80;;;12.60;69.10;;;;;;2330926;58;21034;-67
2023/11/11 11:38:42;;;;;;;2.75;0.93;;;12.60;69.20;;;;;;2129973;58;21014;-67
2023/11/11 11:41:20;;;;;;;6.07;2.55;;;12.60;69.30;;;;;;2129825;59;21033;-68
2023/11/11 11:43:52;;;;;;;4.62;1.98;;;12.60;68.80;;;;;;2331358;58;21034;-68
2023/11/11 11:46:21;;;;;;;4.62;1.83;;;12.60;69.10;;;;;;2130454;58;21082;-67
2023/11/11 11:48:48;;;;;;;2.92;1.23;;;12.50;69.30;;;;;;2133777;58;21086;-66
2023/11/11 11:51:20;;;;;;;3.42;1.12;;;12.50;69.20;;;;;;2335181;58;20982;-67
2023/11/11 11:53:56;;;;;;;2.70;1.10;;;12.50;69.20;;;;;;2332091;58;21455;-66
2023/11/11 11:56:28;;;;;;;2.72;1.17;;;12.50;69.40;;;;;;2335687;59;20986;-66
2023/11/11 11:58:55;;;;;;;2.33;0.90;;;12.60;69.40;;;;;;2132711;59;21477;-65
2023/11/11 12:01:25;;;;;;;2.40;0.90;;;12.50;69.40;;;;;;2330938;58;21768;-66
2023/11/11 12:03:53;;;;;;;2.40;0.90;;;12.50;69.10;;;;;;2129042;58;21070;-68
2023/11/11 12:06:20;;;;;;;2.17;0.70;;;12.50;69.30;;;;;;2331181;58;21034;-66
2023/11/11 12:08:50;;;;;;;2.42;0.70;;;12.50;69.50;;;;;;2331868;58;21144;-66
2023/11/11 12:11:25;;;;;;;4.47;0.80;;;12.60;69.50;;;;;;2129669;59;21086;-67
2023/11/11 12:13:55;;;;;;;2.58;0.73;;;12.60;69.40;;;;;;2331442;58;20989;-68
2023/11/11 12:16:47;;;;;;;1.80;0.70;;;12.60;69.80;;;;;;2129013;59;21031;-67
2023/11/11 12:19:17;;;;;;;2.07;0.77;;;12.60;69.00;;;;;;2129844;59;20974;-67
2023/11/11 12:21:45;;;;;;;2.28;0.75;;;12.60;69.70;;;;;;2332043;58;21010;-69
2023/11/11 12:24:12;;;;;;;3.45;0.62;;;12.60;69.90;;;;;;2331801;58;21748;-70
2023/11/11 12:26:38;;;;;;;1.45;0.70;;;12.60;70.00;;;;;;2130222;59;20993;-68
2023/11/11 12:29:08;;;;;;;1.37;0.62;;;12.60;70.40;;;;;;2130169;59;21133;-68
2023/11/11 12:31:50;;;;;;;1.83;0.73;;;12.60;70.20;;;;;;2332117;58;20972;-70
2023/11/11 12:34:19;;;;;;;1.90;0.75;;;12.70;70.20;;;;;;2119952;60;20989;-70
2023/11/11 12:36:53;;;;;;;1.98;0.60;;;12.70;70.80;;;;;;2331719;58;21089;-69
2023/11/11 12:40:08;;;;;;;2.35;0.85;;;12.70;70.80;;;;;;2331448;58;21478;-66
2023/11/11 12:42:38;;;;;;;2.20;0.80;;;12.80;70.50;;;;;;2331438;58;20962;-66
2023/11/11 12:45:04;;;;;;;1.85;0.80;;;12.80;71.50;;;;;;2130284;59;20985;-70
2023/11/11 12:47:31;;;;;;;2.55;0.80;;;12.90;71.70;;;;;;2129743;59;21030;-65
2023/11/11 12:49:57;;;;;;;2.35;0.88;;;12.90;71.80;;;;;;2130406;59;21026;-67
2023/11/11 12:52:26;;;;;;;2.10;0.80;;;12.90;72.00;;;;;;2129183;59;20989;-68